sensor_id;sensor_type;location;lat;lon;timestamp;pressure;altitude;pressure_sealevel;temperature;humidity
38716;BME280;24833;49.324;8.694;2023-02-26T00:01:38;99444.84;;;-0.82;65.39
38716;BME280;24833;49.324;8.694;2023-02-26T00:04:07;99439.59;;;-0.82;65.23
38716;BME280;24833;49.324;8.694;2023-02-26T00:06:37;99443.19;;;-0.83;65.18
38716;BME280;24833;49.324;8.694;2023-02-26T00:09:05;99438.06;;;-0.84;65.17
38716;BME280;24833;49.324;8.694;2023-02-26T00:11:33;99444.28;;;-0.85;65.23
38716;BME280;24833;49.324;8.694;2023-02-26T00:14:00;99443.69;;;-0.89;65.00
38716;BME280;24833;49.324;8.694;2023-02-26T00:16:34;99448.25;;;-0.91;65.07
38716;BME280;24833;49.324;8.694;2023-02-26T00:19:05;99442.31;;;-0.93;65.12
38716;BME280;24833;49.324;8.694;2023-02-26T00:21:35;99443.41;;;-0.95;64.94
38716;BME280;24833;49.324;8.694;2023-02-26T00:24:02;99441.03;;;-0.98;65.04
38716;BME280;24833;49.324;8.694;2023-02-26T00:26:30;99447.34;;;-1.01;65.13
38716;BME280;24833;49.324;8.694;2023-02-26T00:28:59;99447.63;;;-1.04;65.14
38716;BME280;24833;49.324;8.694;2023-02-26T00:31:26;99446.94;;;-1.06;65.16
38716;BME280;24833;49.324;8.694;2023-02-26T00:33:57;99459.31;;;-1.08;65.05
38716;BME280;24833;49.324;8.694;2023-02-26T00:39:47;99450.22;;;-1.14;64.94
38716;BME280;24833;49.324;8.694;2023-02-26T00:42:17;99451.28;;;-1.16;64.98
38716;BME280;24833;49.324;8.694;2023-02-26T00:44:45;99454.03;;;-1.18;65.06
38716;BME280;24833;49.324;8.694;2023-02-26T00:50:40;99462.53;;;-1.25;64.84
38716;BME280;24833;49.324;8.694;2023-02-26T00:53:21;99458.38;;;-1.28;65.04
38716;BME280;24833;49.324;8.694;2023-02-26T00:55:50;99460.44;;;-1.31;65.05
38716;BME280;24833;49.324;8.694;2023-02-26T00:58:17;99471.88;;;-1.32;65.13
38716;BME280;24833;49.324;8.694;2023-02-26T01:00:45;99465.91;;;-1.34;64.93
38716;BME280;24833;49.324;8.694;2023-02-26T01:03:13;99463.41;;;-1.36;64.92
38716;BME280;24833;49.324;8.694;2023-02-26T01:05:40;99467.00;;;-1.37;65.16
38716;BME280;24833;49.324;8.694;2023-02-26T01:08:23;99468.09;;;-1.40;64.84
38716;BME280;24833;49.324;8.694;2023-02-26T01:10:54;99465.72;;;-1.43;64.95
38716;BME280;24833;49.324;8.694;2023-02-26T01:13:21;99458.97;;;-1.45;65.04
38716;BME280;24833;49.324;8.694;2023-02-26T01:16:07;99466.94;;;-1.47;64.90
38716;BME280;24833;49.324;8.694;2023-02-26T01:18:45;99469.78;;;-1.50;64.92
38716;BME280;24833;49.324;8.694;2023-02-26T01:21:27;99458.75;;;-1.53;64.78
38716;BME280;24833;49.324;8.694;2023-02-26T01:23:56;99458.88;;;-1.55;65.00
38716;BME280;24833;49.324;8.694;2023-02-26T01:26:28;99468.66;;;-1.57;64.96
38716;BME280;24833;49.324;8.694;2023-02-26T01:28:55;99467.13;;;-1.59;65.01
38716;BME280;24833;49.324;8.694;2023-02-26T01:34:11;99457.97;;;-1.65;64.97
38716;BME280;24833;49.324;8.694;2023-02-26T01:36:53;99462.50;;;-1.67;64.88
38716;BME280;24833;49.324;8.694;2023-02-26T01:39:41;99460.97;;;-1.70;65.15
38716;BME280;24833;49.324;8.694;2023-02-26T01:42:18;99458.47;;;-1.71;65.17
38716;BME280;24833;49.324;8.694;2023-02-26T01:45:09;99461.09;;;-1.71;65.23
38716;BME280;24833;49.324;8.694;2023-02-26T01:48:21;99457.78;;;-1.73;65.05
38716;BME280;24833;49.324;8.694;2023-02-26T01:50:52;99454.44;;;-1.75;65.17
38716;BME280;24833;49.324;8.694;2023-02-26T01:56:02;99465.88;;;-1.76;65.02
38716;BME280;24833;49.324;8.694;2023-02-26T01:58:33;99460.75;;;-1.78;65.17
38716;BME280;24833;49.324;8.694;2023-02-26T02:01:02;99465.31;;;-1.80;65.11
38716;BME280;24833;49.324;8.694;2023-02-26T02:03:34;99465.16;;;-1.78;65.23
38716;BME280;24833;49.324;8.694;2023-02-26T02:06:24;99472.31;;;-1.80;65.07
38716;BME280;24833;49.324;8.694;2023-02-26T02:08:53;99469.81;;;-1.82;65.34
38716;BME280;24833;49.324;8.694;2023-02-26T02:11:22;99470.91;;;-1.84;65.10
38716;BME280;24833;49.324;8.694;2023-02-26T02:14:17;99463.19;;;-1.86;64.95
38716;BME280;24833;49.324;8.694;2023-02-26T02:17:22;99461.63;;;-1.88;64.90
38716;BME280;24833;49.324;8.694;2023-02-26T02:23:07;99465.31;;;-1.91;65.27
38716;BME280;24833;49.324;8.694;2023-02-26T02:32:09;99474.13;;;-1.92;65.06
38716;BME280;24833;49.324;8.694;2023-02-26T02:34:50;99473.41;;;-1.94;65.09
38716;BME280;24833;49.324;8.694;2023-02-26T02:40:45;99482.59;;;-2.00;64.87
38716;BME280;24833;49.324;8.694;2023-02-26T02:43:17;99492.34;;;-2.02;65.11
38716;BME280;24833;49.324;8.694;2023-02-26T02:46:05;99487.22;;;-2.03;65.12
38716;BME280;24833;49.324;8.694;2023-02-26T02:49:10;99492.72;;;-2.06;65.06
38716;BME280;24833;49.324;8.694;2023-02-26T02:51:51;99488.53;;;-2.09;64.95
38716;BME280;24833;49.324;8.694;2023-02-26T02:54:43;99490.47;;;-2.11;65.19
38716;BME280;24833;49.324;8.694;2023-02-26T02:57:21;99495.69;;;-2.11;65.28
38716;BME280;24833;49.324;8.694;2023-02-26T02:59:59;99497.59;;;-2.13;65.20
38716;BME280;24833;49.324;8.694;2023-02-26T03:05:37;99503.06;;;-2.16;65.20
38716;BME280;24833;49.324;8.694;2023-02-26T03:08:09;99504.84;;;-2.16;65.26
38716;BME280;24833;49.324;8.694;2023-02-26T03:10:38;99510.22;;;-2.18;65.21
38716;BME280;24833;49.324;8.694;2023-02-26T03:13:05;99504.97;;;-2.18;65.12
38716;BME280;24833;49.324;8.694;2023-02-26T03:15:51;99515.44;;;-2.18;65.38
38716;BME280;24833;49.324;8.694;2023-02-26T03:21:30;99517.22;;;-2.18;65.12
38716;BME280;24833;49.324;8.694;2023-02-26T03:27:52;99523.63;;;-2.23;65.19
38716;BME280;24833;49.324;8.694;2023-02-26T03:30:31;99515.91;;;-2.24;65.18
38716;BME280;24833;49.324;8.694;2023-02-26T03:33:46;99521.28;;;-2.26;65.10
38716;BME280;24833;49.324;8.694;2023-02-26T03:39:09;99530.16;;;-2.28;65.28
38716;BME280;24833;49.324;8.694;2023-02-26T03:42:09;99531.13;;;-2.29;65.18
38716;BME280;24833;49.324;8.694;2023-02-26T03:45:05;99529.59;;;-2.32;65.22
38716;BME280;24833;49.324;8.694;2023-02-26T03:47:35;99530.56;;;-2.33;65.26
38716;BME280;24833;49.324;8.694;2023-02-26T03:50:19;99537.66;;;-2.35;65.33
38716;BME280;24833;49.324;8.694;2023-02-26T03:53:12;99537.09;;;-2.38;65.19
38716;BME280;24833;49.324;8.694;2023-02-26T03:56:01;99536.38;;;-2.40;65.07
38716;BME280;24833;49.324;8.694;2023-02-26T03:58:48;99545.41;;;-2.44;65.17
38716;BME280;24833;49.324;8.694;2023-02-26T04:02:07;99541.25;;;-2.47;65.19
38716;BME280;24833;49.324;8.694;2023-02-26T04:07:31;99554.41;;;-2.49;65.23
38716;BME280;24833;49.324;8.694;2023-02-26T04:09:58;99560.72;;;-2.51;65.40
38716;BME280;24833;49.324;8.694;2023-02-26T04:12:28;99560.84;;;-2.53;65.38
38716;BME280;24833;49.324;8.694;2023-02-26T04:14:55;99565.34;;;-2.55;65.27
38716;BME280;24833;49.324;8.694;2023-02-26T04:17:24;99570.69;;;-2.56;65.28
38716;BME280;24833;49.324;8.694;2023-02-26T04:19:51;99569.03;;;-2.57;65.23
38716;BME280;24833;49.324;8.694;2023-02-26T04:22:18;99563.09;;;-2.59;65.32
38716;BME280;24833;49.324;8.694;2023-02-26T04:24:45;99565.81;;;-2.61;65.43
38716;BME280;24833;49.324;8.694;2023-02-26T04:27:14;99565.81;;;-2.61;65.40
38716;BME280;24833;49.324;8.694;2023-02-26T04:29:41;99562.47;;;-2.63;65.33
38716;BME280;24833;49.324;8.694;2023-02-26T04:32:08;99562.59;;;-2.64;65.15
38716;BME280;24833;49.324;8.694;2023-02-26T04:34:36;99568.91;;;-2.67;65.24
38716;BME280;24833;49.324;8.694;2023-02-26T04:37:03;99573.38;;;-2.69;65.30
38716;BME280;24833;49.324;8.694;2023-02-26T04:39:30;99575.31;;;-2.71;65.21
38716;BME280;24833;49.324;8.694;2023-02-26T04:41:57;99583.25;;;-2.72;65.28
38716;BME280;24833;49.324;8.694;2023-02-26T04:44:24;99584.31;;;-2.75;65.36
38716;BME280;24833;49.324;8.694;2023-02-26T04:46:52;99582.66;;;-2.76;65.35
38716;BME280;24833;49.324;8.694;2023-02-26T04:49:19;99592.25;;;-2.77;65.24
38716;BME280;24833;49.324;8.694;2023-02-26T04:51:46;99596.78;;;-2.79;65.35
38716;BME280;24833;49.324;8.694;2023-02-26T04:54:15;99595.13;;;-2.80;65.45
38716;BME280;24833;49.324;8.694;2023-02-26T04:56:42;99608.19;;;-2.80;65.49
38716;BME280;24833;49.324;8.694;2023-02-26T04:59:09;99601.28;;;-2.81;65.37
38716;BME280;24833;49.324;8.694;2023-02-26T05:01:36;99599.59;;;-2.82;65.39
38716;BME280;24833;49.324;8.694;2023-02-26T05:04:06;99604.00;;;-2.82;65.49
38716;BME280;24833;49.324;8.694;2023-02-26T05:06:34;99603.03;;;-2.81;65.38
38716;BME280;24833;49.324;8.694;2023-02-26T05:09:01;99592.59;;;-2.81;65.41
38716;BME280;24833;49.324;8.694;2023-02-26T05:11:29;99601.28;;;-2.81;65.44
38716;BME280;24833;49.324;8.694;2023-02-26T05:13:56;99603.91;;;-2.81;65.40
38716;BME280;24833;49.324;8.694;2023-02-26T05:16:23;99596.91;;;-2.80;65.33
38716;BME280;24833;49.324;8.694;2023-02-26T05:18:51;99598.56;;;-2.79;65.45
38716;BME280;24833;49.324;8.694;2023-02-26T05:21:18;99601.88;;;-2.77;65.57
38716;BME280;24833;49.324;8.694;2023-02-26T05:23:45;99599.16;;;-2.76;65.38
38716;BME280;24833;49.324;8.694;2023-02-26T05:26:12;99609.50;;;-2.74;65.41
38716;BME280;24833;49.324;8.694;2023-02-26T05:28:39;99600.72;;;-2.73;65.66
38716;BME280;24833;49.324;8.694;2023-02-26T05:31:07;99613.66;;;-2.71;65.54
38716;BME280;24833;49.324;8.694;2023-02-26T05:33:34;99614.25;;;-2.68;65.52
38716;BME280;24833;49.324;8.694;2023-02-26T05:36:01;99615.94;;;-2.67;65.61
38716;BME280;24833;49.324;8.694;2023-02-26T05:38:28;99618.53;;;-2.67;65.51
38716;BME280;24833;49.324;8.694;2023-02-26T05:40:56;99621.88;;;-2.65;65.54
38716;BME280;24833;49.324;8.694;2023-02-26T05:43:24;99628.75;;;-2.64;65.50
38716;BME280;24833;49.324;8.694;2023-02-26T05:45:52;99626.84;;;-2.62;65.57
38716;BME280;24833;49.324;8.694;2023-02-26T05:48:19;99627.59;;;-2.60;65.65
38716;BME280;24833;49.324;8.694;2023-02-26T05:50:48;99631.03;;;-2.59;65.78
38716;BME280;24833;49.324;8.694;2023-02-26T05:53:16;99637.91;;;-2.58;65.57
38716;BME280;24833;49.324;8.694;2023-02-26T05:55:43;99636.84;;;-2.56;65.65
38716;BME280;24833;49.324;8.694;2023-02-26T05:58:10;99636.72;;;-2.54;65.80
38716;BME280;24833;49.324;8.694;2023-02-26T06:00:37;99647.91;;;-2.52;65.79
38716;BME280;24833;49.324;8.694;2023-02-26T06:03:04;99650.41;;;-2.51;65.65
38716;BME280;24833;49.324;8.694;2023-02-26T06:05:32;99654.56;;;-2.48;65.46
38716;BME280;24833;49.324;8.694;2023-02-26T06:07:59;99658.00;;;-2.48;65.69
38716;BME280;24833;49.324;8.694;2023-02-26T06:10:26;99660.53;;;-2.46;65.78
38716;BME280;24833;49.324;8.694;2023-02-26T06:12:53;99669.06;;;-2.44;65.86
38716;BME280;24833;49.324;8.694;2023-02-26T06:15:20;99662.06;;;-2.43;65.69
38716;BME280;24833;49.324;8.694;2023-02-26T06:17:47;99677.75;;;-2.43;65.70
38716;BME280;24833;49.324;8.694;2023-02-26T06:20:14;99678.56;;;-2.43;65.60
38716;BME280;24833;49.324;8.694;2023-02-26T06:22:41;99673.34;;;-2.43;65.59
38716;BME280;24833;49.324;8.694;2023-02-26T06:25:09;99683.78;;;-2.43;65.84
38716;BME280;24833;49.324;8.694;2023-02-26T06:27:35;99680.22;;;-2.42;65.69
38716;BME280;24833;49.324;8.694;2023-02-26T06:30:04;99693.22;;;-2.40;65.85
38716;BME280;24833;49.324;8.694;2023-02-26T06:32:31;99693.09;;;-2.39;65.81
38716;BME280;24833;49.324;8.694;2023-02-26T06:34:58;99702.59;;;-2.38;65.86
38716;BME280;24833;49.324;8.694;2023-02-26T06:37:25;99705.09;;;-2.36;65.83
38716;BME280;24833;49.324;8.694;2023-02-26T06:39:52;99711.88;;;-2.34;65.78
38716;BME280;24833;49.324;8.694;2023-02-26T06:42:19;99723.88;;;-2.31;65.95
38716;BME280;24833;49.324;8.694;2023-02-26T06:44:46;99733.25;;;-2.29;66.05
38716;BME280;24833;49.324;8.694;2023-02-26T06:47:13;99732.94;;;-2.24;65.95
38716;BME280;24833;49.324;8.694;2023-02-26T06:49:40;99730.06;;;-2.21;66.06
38716;BME280;24833;49.324;8.694;2023-02-26T06:52:07;99742.81;;;-2.16;66.09
38716;BME280;24833;49.324;8.694;2023-02-26T06:54:34;99753.63;;;-2.10;66.17
38716;BME280;24833;49.324;8.694;2023-02-26T06:57:01;99742.84;;;-2.05;66.39
38716;BME280;24833;49.324;8.694;2023-02-26T06:59:29;99741.53;;;-2.00;66.38
38716;BME280;24833;49.324;8.694;2023-02-26T07:01:56;99754.16;;;-1.94;66.41
38716;BME280;24833;49.324;8.694;2023-02-26T07:04:24;99754.53;;;-1.87;66.56
38716;BME280;24833;49.324;8.694;2023-02-26T07:06:50;99769.72;;;-1.81;66.73
38716;BME280;24833;49.324;8.694;2023-02-26T07:09:18;99760.50;;;-1.74;66.78
38716;BME280;24833;49.324;8.694;2023-02-26T07:11:46;99763.56;;;-1.69;66.71
38716;BME280;24833;49.324;8.694;2023-02-26T07:14:13;99769.91;;;-1.60;66.73
38716;BME280;24833;49.324;8.694;2023-02-26T07:16:40;99770.25;;;-1.53;66.88
38716;BME280;24833;49.324;8.694;2023-02-26T07:19:07;99777.50;;;-1.46;66.93
38716;BME280;24833;49.324;8.694;2023-02-26T07:21:34;99776.91;;;-1.38;67.08
38716;BME280;24833;49.324;8.694;2023-02-26T07:24:00;99772.59;;;-1.28;67.18
38716;BME280;24833;49.324;8.694;2023-02-26T07:26:28;99784.16;;;-1.19;67.41
38716;BME280;24833;49.324;8.694;2023-02-26T07:28:54;99774.63;;;-1.09;67.38
38716;BME280;24833;49.324;8.694;2023-02-26T07:31:21;99780.81;;;-0.99;67.55
38716;BME280;24833;49.324;8.694;2023-02-26T07:33:49;99780.06;;;-0.90;67.53
38716;BME280;24833;49.324;8.694;2023-02-26T07:36:16;99787.44;;;-0.84;67.52
38716;BME280;24833;49.324;8.694;2023-02-26T07:38:43;99793.03;;;-0.77;67.61
38716;BME280;24833;49.324;8.694;2023-02-26T07:41:10;99792.53;;;-0.71;67.36
38716;BME280;24833;49.324;8.694;2023-02-26T07:43:37;99785.97;;;-0.65;67.58
38716;BME280;24833;49.324;8.694;2023-02-26T07:46:04;99799.56;;;-0.60;67.57
38716;BME280;24833;49.324;8.694;2023-02-26T07:48:31;99807.75;;;-0.53;67.57
38716;BME280;24833;49.324;8.694;2023-02-26T07:50:58;99805.44;;;-0.47;67.64
38716;BME280;24833;49.324;8.694;2023-02-26T07:53:25;99808.53;;;-0.42;67.73
38716;BME280;24833;49.324;8.694;2023-02-26T07:55:52;99810.53;;;-0.34;67.73
38716;BME280;24833;49.324;8.694;2023-02-26T07:58:19;99810.84;;;-0.28;67.70
38716;BME280;24833;49.324;8.694;2023-02-26T08:00:46;99815.59;;;-0.21;67.83
38716;BME280;24833;49.324;8.694;2023-02-26T08:03:13;99814.28;;;-0.16;67.88
38716;BME280;24833;49.324;8.694;2023-02-26T08:05:41;99820.69;;;-0.09;67.85
38716;BME280;24833;49.324;8.694;2023-02-26T08:08:08;99822.09;;;-0.05;67.94
38716;BME280;24833;49.324;8.694;2023-02-26T08:10:35;99828.63;;;0.01;67.98
38716;BME280;24833;49.324;8.694;2023-02-26T08:13:02;99828.84;;;0.09;68.15
38716;BME280;24833;49.324;8.694;2023-02-26T08:15:29;99824.72;;;0.16;68.38
38716;BME280;24833;49.324;8.694;2023-02-26T08:17:56;99823.72;;;0.29;68.56
38716;BME280;24833;49.324;8.694;2023-02-26T08:20:23;99826.25;;;0.40;68.81
38716;BME280;24833;49.324;8.694;2023-02-26T08:22:50;99827.97;;;0.50;68.67
38716;BME280;24833;49.324;8.694;2023-02-26T08:25:18;99829.72;;;0.61;68.77
38716;BME280;24833;49.324;8.694;2023-02-26T08:27:45;99826.97;;;0.72;68.56
38716;BME280;24833;49.324;8.694;2023-02-26T08:30:12;99836.59;;;0.83;68.84
38716;BME280;24833;49.324;8.694;2023-02-26T08:32:40;99836.50;;;0.94;68.87
38716;BME280;24833;49.324;8.694;2023-02-26T08:35:09;99847.88;;;1.04;68.96
38716;BME280;24833;49.324;8.694;2023-02-26T08:37:37;99843.50;;;1.15;68.93
38716;BME280;24833;49.324;8.694;2023-02-26T08:40:06;99843.78;;;1.21;68.79
38716;BME280;24833;49.324;8.694;2023-02-26T08:42:35;99836.19;;;1.28;68.67
38716;BME280;24833;49.324;8.694;2023-02-26T08:45:03;99842.69;;;1.33;68.56
38716;BME280;24833;49.324;8.694;2023-02-26T08:47:30;99838.00;;;1.37;68.50
38716;BME280;24833;49.324;8.694;2023-02-26T08:49:57;99850.88;;;1.40;68.54
38716;BME280;24833;49.324;8.694;2023-02-26T08:52:25;99850.47;;;1.45;68.58
38716;BME280;24833;49.324;8.694;2023-02-26T08:54:52;99857.84;;;1.51;68.68
38716;BME280;24833;49.324;8.694;2023-02-26T08:57:19;99848.56;;;1.56;68.78
38716;BME280;24833;49.324;8.694;2023-02-26T08:59:46;99863.00;;;1.62;68.54
38716;BME280;24833;49.324;8.694;2023-02-26T09:02:13;99861.34;;;1.71;68.75
38716;BME280;24833;49.324;8.694;2023-02-26T09:04:40;99868.53;;;1.78;69.21
38716;BME280;24833;49.324;8.694;2023-02-26T09:07:07;99865.09;;;1.87;69.18
38716;BME280;24833;49.324;8.694;2023-02-26T09:09:34;99865.78;;;1.99;69.47
38716;BME280;24833;49.324;8.694;2023-02-26T09:12:01;99877.00;;;2.11;69.15
38716;BME280;24833;49.324;8.694;2023-02-26T09:14:28;99869.66;;;2.24;69.66
38716;BME280;24833;49.324;8.694;2023-02-26T09:16:55;99876.88;;;2.41;69.66
38716;BME280;24833;49.324;8.694;2023-02-26T09:19:22;99890.56;;;2.55;69.73
38716;BME280;24833;49.324;8.694;2023-02-26T09:21:49;99880.69;;;2.66;69.48
38716;BME280;24833;49.324;8.694;2023-02-26T09:24:16;99879.56;;;2.79;69.61
38716;BME280;24833;49.324;8.694;2023-02-26T09:26:43;99886.75;;;2.86;69.36
38716;BME280;24833;49.324;8.694;2023-02-26T09:29:10;99884.25;;;2.94;69.44
38716;BME280;24833;49.324;8.694;2023-02-26T09:31:37;99885.44;;;3.00;69.26
38716;BME280;24833;49.324;8.694;2023-02-26T09:34:04;99895.44;;;3.06;68.77
38716;BME280;24833;49.324;8.694;2023-02-26T09:36:32;99889.72;;;3.11;69.10
38716;BME280;24833;49.324;8.694;2023-02-26T09:38:59;99883.03;;;3.16;69.40
38716;BME280;24833;49.324;8.694;2023-02-26T09:41:37;99884.28;;;3.22;69.74
38716;BME280;24833;49.324;8.694;2023-02-26T09:44:30;99903.00;;;3.28;69.00
38716;BME280;24833;49.324;8.694;2023-02-26T09:50:02;99904.91;;;3.26;69.14
38716;BME280;24833;49.324;8.694;2023-02-26T09:52:44;99902.88;;;3.20;67.83
38716;BME280;24833;49.324;8.694;2023-02-26T09:55:29;99899.28;;;3.21;68.72
38716;BME280;24833;49.324;8.694;2023-02-26T09:58:03;99907.03;;;3.23;69.09
38716;BME280;24833;49.324;8.694;2023-02-26T10:03:33;99912.41;;;3.31;69.53
38716;BME280;24833;49.324;8.694;2023-02-26T10:09:21;99917.78;;;3.39;69.36
38716;BME280;24833;49.324;8.694;2023-02-26T10:15:22;99921.50;;;3.46;69.02
38716;BME280;24833;49.324;8.694;2023-02-26T10:18:14;99929.56;;;3.45;68.94
38716;BME280;24833;49.324;8.694;2023-02-26T10:20:59;99937.66;;;3.43;68.75
38716;BME280;24833;49.324;8.694;2023-02-26T10:23:54;99938.22;;;3.37;68.68
38716;BME280;24833;49.324;8.694;2023-02-26T10:26:29;99942.41;;;3.30;67.99
38716;BME280;24833;49.324;8.694;2023-02-26T10:29:24;99942.00;;;3.25;68.44
38716;BME280;24833;49.324;8.694;2023-02-26T10:34:54;99944.41;;;3.18;68.65
38716;BME280;24833;49.324;8.694;2023-02-26T10:40:38;99943.47;;;3.10;68.66
38716;BME280;24833;49.324;8.694;2023-02-26T10:43:17;99947.34;;;3.06;68.10
38716;BME280;24833;49.324;8.694;2023-02-26T10:51:48;99953.59;;;3.05;68.70
38716;BME280;24833;49.324;8.694;2023-02-26T10:54:34;99960.53;;;3.06;68.82
38716;BME280;24833;49.324;8.694;2023-02-26T10:57:02;99959.84;;;3.04;68.18
38716;BME280;24833;49.324;8.694;2023-02-26T10:59:30;99974.03;;;3.03;68.28
38716;BME280;24833;49.324;8.694;2023-02-26T11:01:57;99968.03;;;3.00;67.75
38716;BME280;24833;49.324;8.694;2023-02-26T11:04:26;99974.16;;;3.01;68.34
38716;BME280;24833;49.324;8.694;2023-02-26T11:07:00;99982.75;;;3.03;68.64
38716;BME280;24833;49.324;8.694;2023-02-26T11:12:15;99984.72;;;3.01;68.36
38716;BME280;24833;49.324;8.694;2023-02-26T11:14:46;99973.31;;;3.00;67.87
38716;BME280;24833;49.324;8.694;2023-02-26T11:17:27;99975.00;;;3.02;68.69
38716;BME280;24833;49.324;8.694;2023-02-26T11:19:58;99972.38;;;3.02;68.04
38716;BME280;24833;49.324;8.694;2023-02-26T11:22:31;99974.03;;;3.03;68.19
38716;BME280;24833;49.324;8.694;2023-02-26T11:24:59;99973.03;;;3.04;67.71
38716;BME280;24833;49.324;8.694;2023-02-26T11:27:34;99981.78;;;3.04;68.10
38716;BME280;24833;49.324;8.694;2023-02-26T11:30:15;99969.28;;;3.06;67.78
38716;BME280;24833;49.324;8.694;2023-02-26T11:32:45;99971.78;;;3.08;67.88
38716;BME280;24833;49.324;8.694;2023-02-26T11:35:18;99964.56;;;3.10;68.08
38716;BME280;24833;49.324;8.694;2023-02-26T11:37:56;99966.91;;;3.13;68.20
38716;BME280;24833;49.324;8.694;2023-02-26T11:40:40;99968.28;;;3.17;68.58
38716;BME280;24833;49.324;8.694;2023-02-26T11:43:15;99956.47;;;3.21;67.08
38716;BME280;24833;49.324;8.694;2023-02-26T11:45:58;99973.00;;;3.23;67.10
38716;BME280;24833;49.324;8.694;2023-02-26T11:48:46;99981.31;;;3.28;68.22
38716;BME280;24833;49.324;8.694;2023-02-26T11:51:23;99976.72;;;3.30;67.94
38716;BME280;24833;49.324;8.694;2023-02-26T11:54:00;99980.03;;;3.32;68.13
38716;BME280;24833;49.324;8.694;2023-02-26T11:56:40;99983.34;;;3.34;68.11
38716;BME280;24833;49.324;8.694;2023-02-26T11:59:19;99973.50;;;3.36;68.00
38716;BME280;24833;49.324;8.694;2023-02-26T12:01:48;99975.84;;;3.39;67.95
38716;BME280;24833;49.324;8.694;2023-02-26T12:04:22;99975.56;;;3.42;68.29
38716;BME280;24833;49.324;8.694;2023-02-26T12:06:54;99993.22;;;3.42;67.53
38716;BME280;24833;49.324;8.694;2023-02-26T12:09:22;99994.06;;;3.42;67.49
38716;BME280;24833;49.324;8.694;2023-02-26T12:15:45;99986.81;;;3.44;68.14
38716;BME280;24833;49.324;8.694;2023-02-26T12:24:55;99989.97;;;3.58;68.88
38716;BME280;24833;49.324;8.694;2023-02-26T12:30:53;99989.06;;;3.67;68.69
38716;BME280;24833;49.324;8.694;2023-02-26T12:50:57;99978.47;;;4.04;69.14
38716;BME280;24833;49.324;8.694;2023-02-26T12:54:13;99978.94;;;4.17;69.43
38716;BME280;24833;49.324;8.694;2023-02-26T12:57:29;99997.66;;;4.24;67.49
38716;BME280;24833;49.324;8.694;2023-02-26T13:00:53;99981.66;;;4.25;68.18
38716;BME280;24833;49.324;8.694;2023-02-26T13:14:55;99993.88;;;4.80;69.77
38716;BME280;24833;49.324;8.694;2023-02-26T13:17:53;99986.75;;;4.98;69.89
38716;BME280;24833;49.324;8.694;2023-02-26T13:20:27;99990.50;;;5.13;69.74
38716;BME280;24833;49.324;8.694;2023-02-26T13:23:18;99987.81;;;5.31;70.90
38716;BME280;24833;49.324;8.694;2023-02-26T13:25:58;100002.44;;;5.43;67.75
38716;BME280;24833;49.324;8.694;2023-02-26T13:28:35;99990.75;;;5.54;69.53
38716;BME280;24833;49.324;8.694;2023-02-26T13:31:34;100009.66;;;5.59;69.74
38716;BME280;24833;49.324;8.694;2023-02-26T13:34:12;100000.72;;;5.60;68.75
38716;BME280;24833;49.324;8.694;2023-02-26T13:36:42;99997.06;;;5.61;68.67
38716;BME280;24833;49.324;8.694;2023-02-26T13:39:40;99993.13;;;5.65;70.07
38716;BME280;24833;49.324;8.694;2023-02-26T13:42:26;99987.81;;;5.65;68.64
38716;BME280;24833;49.324;8.694;2023-02-26T13:45:14;99990.81;;;5.62;67.79
38716;BME280;24833;49.324;8.694;2023-02-26T13:47:58;99987.47;;;5.60;68.49
38716;BME280;24833;49.324;8.694;2023-02-26T14:02:29;99983.00;;;5.95;69.93
38716;BME280;24833;49.324;8.694;2023-02-26T14:04:56;99990.19;;;6.03;69.86
38716;BME280;24833;49.324;8.694;2023-02-26T14:07:51;99999.28;;;6.08;70.48
38716;BME280;24833;49.324;8.694;2023-02-26T14:16:12;100006.47;;;6.32;70.41
38716;BME280;24833;49.324;8.694;2023-02-26T14:21:48;100007.50;;;6.39;70.66
38716;BME280;24833;49.324;8.694;2023-02-26T14:24:36;100011.97;;;6.39;69.68
38716;BME280;24833;49.324;8.694;2023-02-26T14:27:23;100018.94;;;6.40;70.03
38716;BME280;24833;49.324;8.694;2023-02-26T14:35:26;100022.88;;;6.27;69.63
38716;BME280;24833;49.324;8.694;2023-02-26T14:38:22;100036.13;;;6.27;70.63
38716;BME280;24833;49.324;8.694;2023-02-26T14:41:07;100029.16;;;6.26;69.78
38716;BME280;24833;49.324;8.694;2023-02-26T14:43:43;100030.81;;;6.19;67.38
38716;BME280;24833;49.324;8.694;2023-02-26T14:46:12;100031.28;;;6.15;67.38
38716;BME280;24833;49.324;8.694;2023-02-26T14:48:40;100040.03;;;6.07;67.30
38716;BME280;24833;49.324;8.694;2023-02-26T14:57:58;100040.38;;;5.78;68.48
38716;BME280;24833;49.324;8.694;2023-02-26T15:06:08;100051.63;;;5.46;68.21
38716;BME280;24833;49.324;8.694;2023-02-26T15:14:51;100056.78;;;5.04;66.83
38716;BME280;24833;49.324;8.694;2023-02-26T15:17:30;100066.06;;;4.90;67.30
38716;BME280;24833;49.324;8.694;2023-02-26T15:20:26;100078.16;;;4.75;66.93
38716;BME280;24833;49.324;8.694;2023-02-26T15:25:41;100066.03;;;4.54;66.46
38716;BME280;24833;49.324;8.694;2023-02-26T15:28:26;100072.78;;;4.49;67.08
38716;BME280;24833;49.324;8.694;2023-02-26T15:30:54;100072.25;;;4.45;65.90
38716;BME280;24833;49.324;8.694;2023-02-26T15:33:24;100076.03;;;4.43;66.24
38716;BME280;24833;49.324;8.694;2023-02-26T15:35:55;100075.88;;;4.44;66.67
38716;BME280;24833;49.324;8.694;2023-02-26T15:38:24;100076.25;;;4.49;66.96
38716;BME280;24833;49.324;8.694;2023-02-26T15:40:53;100073.84;;;4.56;67.04
38716;BME280;24833;49.324;8.694;2023-02-26T15:43:27;100082.00;;;4.62;67.27
38716;BME280;24833;49.324;8.694;2023-02-26T15:45:56;100085.19;;;4.66;67.16
38716;BME280;24833;49.324;8.694;2023-02-26T15:48:29;100087.38;;;4.71;67.04
38716;BME280;24833;49.324;8.694;2023-02-26T15:51:00;100082.09;;;4.71;66.56
38716;BME280;24833;49.324;8.694;2023-02-26T15:53:31;100082.09;;;4.71;67.94
38716;BME280;24833;49.324;8.694;2023-02-26T15:56:03;100092.44;;;4.64;66.53
38716;BME280;24833;49.324;8.694;2023-02-26T15:58:41;100084.13;;;4.59;66.30
38716;BME280;24833;49.324;8.694;2023-02-26T16:01:16;100090.00;;;4.53;65.94
38716;BME280;24833;49.324;8.694;2023-02-26T16:03:43;100076.69;;;4.45;64.87
38716;BME280;24833;49.324;8.694;2023-02-26T16:06:16;100095.94;;;4.37;65.03
38716;BME280;24833;49.324;8.694;2023-02-26T16:08:44;100101.13;;;4.29;65.09
38716;BME280;24833;49.324;8.694;2023-02-26T16:11:13;100108.66;;;4.24;65.52
38716;BME280;24833;49.324;8.694;2023-02-26T16:13:42;100110.09;;;4.18;65.57